createdAt,value
2022-11-08T00:00:12.028Z,96653.16
2022-11-08T00:02:39.013Z,96656.25
2022-11-08T00:05:24.728Z,96644.97
2022-11-08T00:08:10.233Z,96646.63
2022-11-08T00:10:55.686Z,96644.00
2022-11-08T00:13:40.748Z,96634.88
2022-11-08T00:16:07.645Z,96638.47
2022-11-08T00:18:34.429Z,96639.13
2022-11-08T00:21:02.806Z,96636.84
2022-11-08T00:23:29.631Z,96631.97
2022-11-08T00:25:56.442Z,96631.97
2022-11-08T00:28:23.232Z,96633.09
2022-11-08T00:30:49.996Z,96632.78
2022-11-08T00:33:16.776Z,96630.63
2022-11-08T00:35:43.571Z,96633.25
2022-11-08T00:38:10.347Z,96625.41
2022-11-08T00:40:37.125Z,96621.16
2022-11-08T00:43:03.918Z,96619.53
2022-11-08T00:45:30.703Z,96613.00
2022-11-08T00:47:57.504Z,96619.88
2022-11-08T00:50:24.317Z,96625.41
2022-11-08T00:52:51.104Z,96623.44
2022-11-08T00:55:17.935Z,96618.88
2022-11-08T00:57:59.106Z,96610.88
2022-11-08T01:00:27.255Z,96614.63
2022-11-08T01:03:14.136Z,96610.38
2022-11-08T01:05:41.642Z,96601.09
2022-11-08T01:08:10.105Z,96601.91
2022-11-08T01:10:37.423Z,96596.69
2022-11-08T01:13:04.312Z,96605.50
2022-11-08T01:15:42.828Z,96595.72
2022-11-08T01:18:13.085Z,96595.06
2022-11-08T01:20:41.577Z,96579.88
2022-11-08T01:23:10.484Z,96581.38
2022-11-08T01:25:39.544Z,96585.94
2022-11-08T01:28:07.059Z,96581.69
2022-11-08T01:30:43.165Z,96585.13
2022-11-08T01:33:10.704Z,96587.56
2022-11-08T01:35:38.103Z,96584.28
2022-11-08T01:38:06.081Z,96570.44
2022-11-08T01:40:33.455Z,96568.66
2022-11-08T01:43:00.282Z,96562.47
2022-11-08T01:46:20.114Z,96569.16
2022-11-08T01:49:29.213Z,96570.63
2022-11-08T01:52:04.485Z,96569.13
2022-11-08T01:54:36.165Z,96575.16
2022-11-08T01:57:07.252Z,96556.59
2022-11-08T01:59:37.728Z,96555.63
2022-11-08T02:02:06.234Z,96552.34
2022-11-08T02:04:33.381Z,96553.31
2022-11-08T02:07:01.571Z,96553.50
2022-11-08T02:09:28.570Z,96557.09
2022-11-08T02:11:55.976Z,96546.00
2022-11-08T02:14:22.840Z,96547.44
2022-11-08T02:16:49.620Z,96535.72
2022-11-08T02:19:28.665Z,96534.09
2022-11-08T02:22:01.486Z,96527.91
2022-11-08T02:24:28.688Z,96527.22
2022-11-08T02:26:56.523Z,96534.59
2022-11-08T02:29:32.299Z,96532.47
2022-11-08T02:32:01.544Z,96536.06
2022-11-08T02:34:38.035Z,96533.44
2022-11-08T02:37:06.671Z,96537.19
2022-11-08T02:39:34.200Z,96539.63
2022-11-08T02:42:04.680Z,96536.41
2022-11-08T02:44:31.475Z,96525.78
2022-11-08T02:46:58.420Z,96519.09
2022-11-08T02:49:25.238Z,96522.34
2022-11-08T02:51:53.613Z,96521.06
2022-11-08T02:54:20.801Z,96528.22
2022-11-08T02:56:47.664Z,96516.47
2022-11-08T02:59:14.859Z,96513.19
2022-11-08T03:01:41.805Z,96514.97
2022-11-08T03:04:08.896Z,96506.97
2022-11-08T03:06:35.685Z,96507.81
2022-11-08T03:09:02.589Z,96505.88
2022-11-08T03:11:29.369Z,96497.56
2022-11-08T03:13:56.134Z,96504.41
2022-11-08T03:16:23.133Z,96503.72
2022-11-08T03:18:49.919Z,96511.69
2022-11-08T03:21:16.708Z,96499.59
2022-11-08T03:23:43.513Z,96497.78
2022-11-08T03:26:10.355Z,96499.75
2022-11-08T03:28:37.138Z,96504.63
2022-11-08T03:31:04.007Z,96503.19
2022-11-08T03:33:30.798Z,96502.31
2022-11-08T03:35:57.608Z,96499.06
2022-11-08T03:38:24.398Z,96497.75
2022-11-08T03:40:51.206Z,96496.75
2022-11-08T03:43:17.989Z,96495.25
2022-11-08T03:45:46.424Z,96503.25
2022-11-08T03:48:13.360Z,96496.13
2022-11-08T03:50:41.256Z,96504.59
2022-11-08T03:53:08.070Z,96500.69
2022-11-08T03:55:34.916Z,96495.81
2022-11-08T03:58:01.741Z,96499.69
2022-11-08T04:00:30.190Z,96496.13
2022-11-08T04:03:03.237Z,96497.72
2022-11-08T04:05:32.297Z,96493.81
2022-11-08T04:08:00.986Z,96492.47
2022-11-08T04:10:27.906Z,96484.34
2022-11-08T04:13:13.096Z,96490.16
2022-11-08T04:15:40.141Z,96479.44
2022-11-08T04:18:25.396Z,96474.59
2022-11-08T04:21:10.749Z,96473.34
2022-11-08T04:23:38.133Z,96476.53
2022-11-08T04:26:08.338Z,96475.28
2022-11-08T04:28:37.372Z,96471.06
2022-11-08T04:31:08.793Z,96472.19
2022-11-08T04:33:35.836Z,96472.34
2022-11-08T04:36:10.379Z,96463.69
2022-11-08T04:38:37.396Z,96455.72
2022-11-08T04:41:13.691Z,96459.28
2022-11-08T04:43:40.721Z,96467.06
2022-11-08T04:46:11.295Z,96463.88
2022-11-08T04:48:38.518Z,96465.03
2022-11-08T04:51:15.957Z,96458.69
2022-11-08T04:53:42.997Z,96455.22
2022-11-08T04:56:16.132Z,96454.59
2022-11-08T04:58:45.686Z,96450.47
2022-11-08T05:01:16.138Z,96458.09
2022-11-08T05:03:43.441Z,96453.72
2022-11-08T05:06:16.541Z,96441.56
2022-11-08T05:08:44.050Z,96442.16
2022-11-08T05:11:17.361Z,96449.00
2022-11-08T05:13:44.687Z,96429.88
2022-11-08T05:16:15.856Z,96446.69
2022-11-08T05:18:44.162Z,96444.75
2022-11-08T05:21:32.424Z,96441.88
2022-11-08T05:23:59.962Z,96441.56
2022-11-08T05:26:28.121Z,96441.53
2022-11-08T05:28:54.924Z,96438.13
2022-11-08T05:31:21.743Z,96434.41
2022-11-08T05:33:48.785Z,96437.00
2022-11-08T05:36:16.503Z,96436.47
2022-11-08T05:38:43.788Z,96423.94
2022-11-08T05:41:17.820Z,96440.13
2022-11-08T05:43:50.492Z,96433.13
2022-11-08T05:46:19.232Z,96436.28
2022-11-08T05:48:49.201Z,96435.97
2022-11-08T05:51:18.423Z,96439.88
2022-11-08T05:53:47.032Z,96438.16
2022-11-08T05:56:13.926Z,96433.28
2022-11-08T05:58:41.228Z,96421.38
2022-11-08T06:01:14.695Z,96433.56
2022-11-08T06:03:42.063Z,96433.00
2022-11-08T06:06:18.870Z,96442.94
2022-11-08T06:08:49.976Z,96444.97
2022-11-08T06:11:21.887Z,96437.47
2022-11-08T06:13:49.044Z,96449.44
2022-11-08T06:16:18.237Z,96454.84
2022-11-08T06:18:45.403Z,96452.09
2022-11-08T06:21:14.979Z,96451.19
2022-11-08T06:23:42.428Z,96455.50
2022-11-08T06:26:09.845Z,96444.16
2022-11-08T06:28:36.713Z,96446.81
2022-11-08T06:31:04.794Z,96454.38
2022-11-08T06:33:32.580Z,96454.47
2022-11-08T06:35:59.374Z,96462.69
2022-11-08T06:38:26.388Z,96467.06
2022-11-08T06:40:53.206Z,96459.91
2022-11-08T06:43:20.380Z,96461.59
2022-11-08T06:45:47.702Z,96455.47
2022-11-08T06:48:14.691Z,96459.94
2022-11-08T06:50:42.602Z,96455.19
2022-11-08T06:53:12.846Z,96458.78
2022-11-08T06:55:39.790Z,96463.66
2022-11-08T06:58:06.686Z,96453.81
2022-11-08T07:00:33.510Z,96446.53
2022-11-08T07:03:03.354Z,96451.44
2022-11-08T07:05:33.212Z,96456.41
2022-11-08T07:08:00.719Z,96460.94
2022-11-08T07:10:30.403Z,96460.59
2022-11-08T07:13:10.226Z,96460.16
2022-11-08T07:15:38.274Z,96458.09
2022-11-08T07:18:11.622Z,96451.84
2022-11-08T07:20:39.837Z,96464.97
2022-11-08T07:23:07.583Z,96469.88
2022-11-08T07:25:35.209Z,96468.53
2022-11-08T07:28:06.319Z,96455.81
2022-11-08T07:30:35.124Z,96459.28
2022-11-08T07:33:01.949Z,96463.78
2022-11-08T07:35:28.850Z,96456.81
2022-11-08T07:37:56.326Z,96466.94
2022-11-08T07:40:23.331Z,96463.25
2022-11-08T07:43:10.487Z,96466.75
2022-11-08T07:45:37.196Z,96458.53
2022-11-08T07:48:11.465Z,96461.00
2022-11-08T07:50:41.277Z,96447.19
2022-11-08T07:53:08.596Z,96455.03
2022-11-08T07:55:40.231Z,96444.16
2022-11-08T07:58:08.558Z,96451.72
2022-11-08T08:00:38.018Z,96454.00
2022-11-08T08:03:07.666Z,96449.06
2022-11-08T08:05:41.626Z,96436.41
2022-11-08T08:08:09.613Z,96440.00
2022-11-08T08:10:37.185Z,96440.00
2022-11-08T08:13:06.263Z,96434.38
2022-11-08T08:15:33.725Z,96432.00
2022-11-08T08:18:03.491Z,96435.13
2022-11-08T08:20:31.499Z,96433.13
2022-11-08T08:22:59.064Z,96431.06
2022-11-08T08:25:29.977Z,96435.88
2022-11-08T08:28:00.750Z,96439.22
2022-11-08T08:30:29.693Z,96434.00
2022-11-08T08:35:56.774Z,96431.09
2022-11-08T08:38:23.781Z,96433.28
2022-11-08T08:40:51.454Z,96429.44
2022-11-08T08:43:19.445Z,96428.25
2022-11-08T08:45:46.716Z,96430.81
2022-11-08T08:48:13.512Z,96430.44
2022-11-08T08:50:41.439Z,96433.22
2022-11-08T08:53:08.392Z,96430.78
2022-11-08T08:55:35.418Z,96430.56
2022-11-08T08:58:02.548Z,96429.53
2022-11-08T09:03:16.434Z,96426.72
2022-11-08T09:05:46.213Z,96434.94
2022-11-08T09:08:14.703Z,96429.38
2022-11-08T09:10:41.872Z,96435.34
2022-11-08T09:13:09.040Z,96428.41
2022-11-08T09:15:36.130Z,96427.13
2022-11-08T09:18:03.189Z,96422.69
2022-11-08T09:20:30.045Z,96418.63
2022-11-08T09:23:02.688Z,96425.34
2022-11-08T09:25:29.530Z,96427.13
2022-11-08T09:27:56.388Z,96428.94
2022-11-08T09:30:23.249Z,96425.75
2022-11-08T09:33:01.965Z,96433.50
2022-11-08T09:35:30.180Z,96431.97
2022-11-08T09:37:57.812Z,96429.72
2022-11-08T09:40:53.207Z,96439.06
2022-11-08T09:43:42.151Z,96432.25
2022-11-08T09:46:11.828Z,96437.06
2022-11-08T09:48:43.155Z,96439.81
2022-11-08T09:51:17.178Z,96430.13
2022-11-08T09:53:59.840Z,96427.75
2022-11-08T09:56:28.941Z,96424.53
2022-11-08T09:59:03.351Z,96423.44
2022-11-08T10:01:34.183Z,96434.44
2022-11-08T10:04:24.532Z,96432.25
2022-11-08T10:07:28.151Z,96424.81
2022-11-08T10:09:54.991Z,96428.53
2022-11-08T10:12:48.515Z,96425.91
2022-11-08T10:15:35.409Z,96419.53
2022-11-08T10:18:57.968Z,96419.00
2022-11-08T10:21:59.321Z,96418.88
2022-11-08T10:24:37.770Z,96423.00
2022-11-08T10:27:15.024Z,96412.50
2022-11-08T10:29:44.960Z,96406.41
2022-11-08T10:32:23.241Z,96408.31
2022-11-08T10:35:05.447Z,96400.22
2022-11-08T10:37:34.029Z,96395.66
2022-11-08T10:40:17.239Z,96390.63
2022-11-08T10:42:54.311Z,96391.66
2022-11-08T10:45:21.143Z,96385.66
2022-11-08T10:47:48.019Z,96391.16
2022-11-08T10:50:20.216Z,96393.16
2022-11-08T10:52:51.470Z,96382.94
2022-11-08T10:55:30.526Z,96385.00
2022-11-08T10:57:57.737Z,96375.88
2022-11-08T11:00:29.249Z,96378.53
2022-11-08T11:03:11.207Z,96367.53
2022-11-08T11:05:43.330Z,96363.91
2022-11-08T11:08:10.047Z,96360.06
2022-11-08T11:10:46.777Z,96357.09
2022-11-08T11:13:24.336Z,96356.94
2022-11-08T11:16:04.446Z,96362.16
2022-11-08T11:18:47.610Z,96361.31
2022-11-08T11:21:22.095Z,96363.31
2022-11-08T11:24:20.947Z,96354.28
2022-11-08T11:26:58.942Z,96357.50
2022-11-08T11:29:36.587Z,96359.91
2022-11-08T11:32:24.003Z,96345.25
2022-11-08T11:34:53.911Z,96342.63
2022-11-08T11:37:45.582Z,96339.56
2022-11-08T11:40:40.674Z,96325.16
2022-11-08T11:43:31.441Z,96333.19
2022-11-08T11:46:45.424Z,96338.63
2022-11-08T11:49:21.245Z,96338.97
2022-11-08T11:51:48.302Z,96335.91
2022-11-08T11:54:16.498Z,96333.53
2022-11-08T11:57:08.929Z,96334.31
2022-11-08T12:00:14.207Z,96326.34
2022-11-08T12:03:19.038Z,96324.69
2022-11-08T12:06:12.707Z,96323.50
2022-11-08T12:09:19.406Z,96325.25
2022-11-08T12:12:15.907Z,96318.81
2022-11-08T12:15:01.487Z,96315.47
2022-11-08T12:17:44.816Z,96320.47
2022-11-08T12:20:48.867Z,96324.81
2022-11-08T12:23:33.720Z,96314.44
2022-11-08T12:26:27.289Z,96317.38
2022-11-08T12:29:23.944Z,96310.66
2022-11-08T12:32:04.409Z,96309.03
2022-11-08T12:35:08.302Z,96309.69
2022-11-08T12:38:04.961Z,96309.25
2022-11-08T12:41:07.542Z,96310.00
2022-11-08T12:44:11.411Z,96300.19
2022-11-08T12:46:49.531Z,96298.19
2022-11-08T12:49:36.263Z,96298.75
2022-11-08T12:52:36.800Z,96304.28
2022-11-08T12:55:10.171Z,96299.09
2022-11-08T12:57:38.408Z,96293.31
2022-11-08T13:00:14.573Z,96295.56
2022-11-08T13:02:44.441Z,96297.28
2022-11-08T13:05:34.462Z,96297.00
2022-11-08T13:08:30.699Z,96301.47
2022-11-08T13:11:38.728Z,96305.59
2022-11-08T13:14:05.687Z,96309.44
2022-11-08T13:16:39.212Z,96296.56
2022-11-08T13:19:06.129Z,96287.78
2022-11-08T13:21:39.593Z,96296.16
2022-11-08T13:24:38.044Z,96296.31
2022-11-08T13:27:04.215Z,96302.78
2022-11-08T13:29:31.281Z,96312.50
2022-11-08T13:32:04.884Z,96310.06
2022-11-08T13:34:55.730Z,96301.16
2022-11-08T13:37:55.150Z,96299.97
2022-11-08T13:40:56.300Z,96312.25
2022-11-08T13:43:33.334Z,96314.50
2022-11-08T13:46:20.867Z,96309.44
2022-11-08T13:49:05.266Z,96311.19
2022-11-08T13:51:35.695Z,96308.69
2022-11-08T13:54:23.738Z,96307.84
2022-11-08T13:56:55.325Z,96306.72
2022-11-08T13:59:31.299Z,96314.19
2022-11-08T14:01:59.493Z,96317.50
2022-11-08T14:04:41.010Z,96307.72
2022-11-08T14:07:26.423Z,96297.69
2022-11-08T14:10:09.724Z,96303.03
2022-11-08T14:13:26.622Z,96294.50
2022-11-08T14:16:07.685Z,96287.16
2022-11-08T14:18:39.032Z,96289.59
2022-11-08T14:21:06.891Z,96286.69
2022-11-08T14:23:40.652Z,96280.44
2022-11-08T14:26:21.529Z,96281.31
2022-11-08T14:28:50.674Z,96286.56
2022-11-08T14:31:27.292Z,96287.78
2022-11-08T14:33:55.168Z,96286.75
2022-11-08T14:36:24.204Z,96291.25
2022-11-08T14:39:04.432Z,96292.63
2022-11-08T14:41:33.520Z,96299.56
2022-11-08T14:44:02.657Z,96301.22
2022-11-08T14:46:38.054Z,96289.69
2022-11-08T14:49:32.012Z,96300.47
2022-11-08T14:52:25.918Z,96290.25
2022-11-08T14:55:23.431Z,96292.31
2022-11-08T14:57:50.356Z,96296.91
2022-11-08T15:00:27.020Z,96296.25
2022-11-08T15:02:59.913Z,96298.50
2022-11-08T15:05:41.108Z,96295.88
2022-11-08T15:08:35.187Z,96308.56
2022-11-08T15:11:09.524Z,96299.81
2022-11-08T15:13:50.443Z,96283.13
2022-11-08T15:16:18.098Z,96288.28
2022-11-08T15:18:45.363Z,96286.53
2022-11-08T15:21:12.031Z,96283.38
2022-11-08T15:23:53.164Z,96279.09
2022-11-08T15:26:32.745Z,96276.03
2022-11-08T15:29:07.002Z,96267.28
2022-11-08T15:31:42.112Z,96258.72
2022-11-08T15:34:34.639Z,96252.72
2022-11-08T15:37:01.500Z,96260.38
2022-11-08T15:39:39.426Z,96265.63
2022-11-08T15:42:17.462Z,96261.38
2022-11-08T15:45:02.230Z,96264.53
2022-11-08T15:47:43.837Z,96257.09
2022-11-08T15:50:29.966Z,96256.63
2022-11-08T15:53:00.110Z,96251.78
2022-11-08T15:55:48.520Z,96264.66
2022-11-08T15:58:22.821Z,96263.47
2022-11-08T16:00:49.993Z,96260.66
2022-11-08T16:03:17.192Z,96267.81
2022-11-08T16:05:44.077Z,96271.72
2022-11-08T16:08:14.344Z,96270.28
2022-11-08T16:10:50.647Z,96266.09
2022-11-08T16:13:32.953Z,96274.91
2022-11-08T16:16:01.777Z,96257.31
2022-11-08T16:18:32.240Z,96258.19
2022-11-08T16:20:59.184Z,96250.31
2022-11-08T16:23:26.084Z,96253.59
2022-11-08T16:25:56.032Z,96253.81
2022-11-08T16:28:34.576Z,96251.59
2022-11-08T16:31:03.088Z,96266.00
2022-11-08T16:33:32.492Z,96260.75
2022-11-08T16:36:03.416Z,96264.38
2022-11-08T16:38:36.688Z,96276.97
2022-11-08T16:41:05.293Z,96270.47
2022-11-08T16:43:32.519Z,96264.81
2022-11-08T16:46:06.992Z,96266.63
2022-11-08T16:48:39.696Z,96282.22
2022-11-08T16:51:16.233Z,96270.88
2022-11-08T16:53:43.026Z,96280.97
2022-11-08T16:56:09.872Z,96281.19
2022-11-08T16:58:36.747Z,96281.38
2022-11-08T17:01:10.223Z,96282.56
2022-11-08T17:03:37.612Z,96275.69
2022-11-08T17:06:04.471Z,96278.09
2022-11-08T17:08:31.293Z,96272.00
2022-11-08T17:10:58.117Z,96281.31
2022-11-08T17:13:24.911Z,96280.13
2022-11-08T17:15:51.845Z,96280.94
2022-11-08T17:18:22.075Z,96288.44
2022-11-08T17:20:49.399Z,96294.31
2022-11-08T17:23:16.399Z,96295.53
2022-11-08T17:25:44.446Z,96294.91
2022-11-08T17:28:12.671Z,96291.06
2022-11-08T17:30:44.608Z,96291.69
2022-11-08T17:33:12.943Z,96294.91
2022-11-08T17:35:43.950Z,96292.50
2022-11-08T17:38:12.487Z,96299.16
2022-11-08T17:40:39.335Z,96291.28
2022-11-08T17:43:06.142Z,96302.22
2022-11-08T17:45:32.985Z,96301.00
2022-11-08T17:47:59.856Z,96305.25
2022-11-08T17:50:26.666Z,96297.94
2022-11-08T17:52:54.856Z,96303.59
2022-11-08T17:55:21.820Z,96298.75
2022-11-08T17:57:48.656Z,96301.97
2022-11-08T18:00:16.398Z,96305.22
2022-11-08T18:02:43.379Z,96300.53
2022-11-08T18:05:10.205Z,96300.28
2022-11-08T18:07:38.390Z,96292.59
2022-11-08T18:10:07.108Z,96298.88
2022-11-08T18:12:34.046Z,96306.75
2022-11-08T18:15:01.041Z,96297.47
2022-11-08T18:17:27.929Z,96302.34
2022-11-08T18:19:54.883Z,96304.78
2022-11-08T18:22:21.995Z,96306.59
2022-11-08T18:24:50.092Z,96295.88
2022-11-08T18:27:17.292Z,96306.38
2022-11-08T18:29:44.367Z,96298.25
2022-11-08T18:32:11.250Z,96301.09
2022-11-08T18:34:38.048Z,96299.47
2022-11-08T18:37:04.850Z,96299.50
2022-11-08T18:39:32.015Z,96299.09
2022-11-08T18:41:58.897Z,96293.88
2022-11-08T18:44:25.706Z,96294.53
2022-11-08T18:46:52.612Z,96294.72
2022-11-08T18:49:19.630Z,96305.06
2022-11-08T18:51:52.011Z,96297.19
2022-11-08T18:54:20.133Z,96301.63
2022-11-08T18:56:46.935Z,96298.00
2022-11-08T18:59:14.184Z,96296.56
2022-11-08T19:01:41.207Z,96298.81
2022-11-08T19:04:08.094Z,96303.41
2022-11-08T19:06:35.123Z,96306.03
2022-11-08T19:09:02.061Z,96304.00
2022-11-08T19:11:30.488Z,96303.59
2022-11-08T19:13:58.865Z,96298.28
2022-11-08T19:16:25.920Z,96308.31
2022-11-08T19:18:52.894Z,96309.09
2022-11-08T19:21:25.785Z,96306.25
2022-11-08T19:23:56.893Z,96293.66
2022-11-08T19:26:26.489Z,96295.25
2022-11-08T19:28:57.296Z,96310.66
2022-11-08T19:31:25.188Z,96313.09
2022-11-08T19:33:53.736Z,96304.63
2022-11-08T19:36:27.287Z,96309.25
2022-11-08T19:38:55.971Z,96311.06
2022-11-08T19:41:26.209Z,96315.34
2022-11-08T19:43:53.261Z,96319.59
2022-11-08T19:46:24.010Z,96318.38
2022-11-08T19:48:52.584Z,96324.84
2022-11-08T19:51:25.875Z,96322.03
2022-11-08T19:54:01.340Z,96315.97
2022-11-08T19:56:50.544Z,96314.50
2022-11-08T19:59:17.286Z,96314.31
2022-11-08T20:01:44.539Z,96320.38
2022-11-08T20:04:12.813Z,96330.47
2022-11-08T20:06:40.189Z,96328.91
2022-11-08T20:09:07.759Z,96322.03
2022-11-08T20:11:37.412Z,96321.22
2022-11-08T20:14:05.740Z,96323.22
2022-11-08T20:16:38.028Z,96330.09
2022-11-08T20:19:16.874Z,96311.50
2022-11-08T20:21:45.972Z,96315.13
2022-11-08T20:24:13.711Z,96304.59
2022-11-08T20:26:41.788Z,96316.69
2022-11-08T20:29:09.606Z,96311.03
2022-11-08T20:31:36.944Z,96311.44
2022-11-08T20:34:05.975Z,96310.81
2022-11-08T20:36:35.382Z,96313.22
2022-11-08T20:39:06.805Z,96307.78
2022-11-08T20:41:36.868Z,96313.81
2022-11-08T20:44:03.843Z,96313.00
2022-11-08T20:46:32.304Z,96308.50
2022-11-08T20:49:00.850Z,96315.75
2022-11-08T20:51:29.931Z,96309.69
2022-11-08T20:53:59.211Z,96308.69
2022-11-08T20:56:27.263Z,96304.03
2022-11-08T20:58:54.229Z,96308.44
2022-11-08T21:01:24.318Z,96319.31
2022-11-08T21:03:52.491Z,96316.84
2022-11-08T21:06:22.578Z,96314.44
2022-11-08T21:08:59.711Z,96307.09
2022-11-08T21:11:30.218Z,96316.34
2022-11-08T21:13:57.261Z,96312.63
2022-11-08T21:16:42.450Z,96308.53
2022-11-08T21:19:10.843Z,96310.09
2022-11-08T21:21:37.719Z,96308.41
2022-11-08T21:24:04.702Z,96306.75
2022-11-08T21:26:36.234Z,96302.69
2022-11-08T21:29:05.088Z,96294.59
2022-11-08T21:31:33.043Z,96298.97
2022-11-08T21:34:00.542Z,96301.69
2022-11-08T21:36:28.978Z,96308.94
2022-11-08T21:38:55.997Z,96306.59
2022-11-08T21:41:22.791Z,96300.88
2022-11-08T21:43:49.815Z,96300.47
2022-11-08T21:46:25.858Z,96308.50
2022-11-08T21:48:58.955Z,96304.88
2022-11-08T21:51:27.039Z,96311.19
2022-11-08T21:53:56.651Z,96309.81
2022-11-08T21:56:27.798Z,96289.22
2022-11-08T21:58:54.598Z,96293.59
2022-11-08T22:01:25.427Z,96292.44
2022-11-08T22:03:55.579Z,96295.00
2022-11-08T22:06:22.647Z,96287.69
2022-11-08T22:08:49.503Z,96307.03
2022-11-08T22:11:16.314Z,96304.16
2022-11-08T22:13:43.128Z,96295.28
2022-11-08T22:16:09.986Z,96292.66
2022-11-08T22:18:58.849Z,96293.22
2022-11-08T22:21:41.144Z,96297.81
2022-11-08T22:24:18.147Z,96292.59
2022-11-08T22:26:45.098Z,96281.03
2022-11-08T22:29:12.797Z,96282.25
2022-11-08T22:31:40.251Z,96286.41
2022-11-08T22:34:08.581Z,96278.91
2022-11-08T22:36:41.185Z,96278.28
2022-11-08T22:39:17.740Z,96278.03
2022-11-08T22:41:46.573Z,96275.50
2022-11-08T22:44:14.288Z,96273.84
2022-11-08T22:46:46.427Z,96281.31
2022-11-08T22:49:15.790Z,96290.19
2022-11-08T22:51:43.696Z,96280.97
2022-11-08T22:54:10.710Z,96279.06
2022-11-08T22:56:38.176Z,96285.97
2022-11-08T22:59:05.036Z,96277.88
2022-11-08T23:01:33.196Z,96281.88
2022-11-08T23:04:00.123Z,96284.22
2022-11-08T23:06:27.006Z,96282.13
2022-11-08T23:08:53.856Z,96278.81
2022-11-08T23:11:39.188Z,96284.06
2022-11-08T23:14:24.306Z,96281.69
2022-11-08T23:16:51.097Z,96285.50
2022-11-08T23:19:39.796Z,96274.50
2022-11-08T23:22:31.619Z,96271.69
2022-11-08T23:24:58.748Z,96272.78
2022-11-08T23:27:45.396Z,96275.38
2022-11-08T23:30:36.763Z,96285.78
2022-11-08T23:33:06.708Z,96287.03
2022-11-08T23:35:33.628Z,96287.03
2022-11-08T23:38:00.514Z,96273.13
2022-11-08T23:40:45.593Z,96279.38
2022-11-08T23:43:37.689Z,96276.56
2022-11-08T23:46:11.114Z,96279.53
2022-11-08T23:48:40.534Z,96277.19
2022-11-08T23:51:07.913Z,96277.00
2022-11-08T23:53:39.949Z,96265.38
2022-11-08T23:56:07.414Z,96264.91
2022-11-08T23:58:34.411Z,96269.16
